createdAt,value
2017-11-18T00:00:34.325Z,86.31
2017-11-18T00:03:01.841Z,85.69
2017-11-18T00:05:29.334Z,86.05
2017-11-18T00:07:56.835Z,85.78
2017-11-18T00:10:24.371Z,85.19
2017-11-18T00:12:51.912Z,85.58
2017-11-18T00:15:19.476Z,85.02
2017-11-18T00:17:47.045Z,84.75
2017-11-18T00:20:14.534Z,84.34
2017-11-18T00:22:42.145Z,85.09
2017-11-18T00:25:09.644Z,85.04
2017-11-18T00:27:37.144Z,84.90
2017-11-18T00:30:04.679Z,85.32
2017-11-18T00:32:32.181Z,85.06
2017-11-18T00:34:59.737Z,84.64
2017-11-18T00:37:27.261Z,84.93
2017-11-18T00:39:54.753Z,84.76
2017-11-18T00:42:22.333Z,85.22
2017-11-18T00:44:49.981Z,85.35
2017-11-18T00:47:17.523Z,85.20
2017-11-18T00:49:45.024Z,86.39
2017-11-18T00:52:12.674Z,84.99
2017-11-18T00:54:40.169Z,84.88
2017-11-18T00:57:07.666Z,85.17
2017-11-18T00:59:35.209Z,84.40
2017-11-18T01:02:02.807Z,84.47
2017-11-18T01:04:30.363Z,85.09
2017-11-18T01:06:58.020Z,84.84
2017-11-18T01:09:25.518Z,84.75
2017-11-18T01:11:53.133Z,85.38
2017-11-18T01:14:20.645Z,84.83
2017-11-18T01:16:48.242Z,85.28
2017-11-18T01:19:15.766Z,85.78
2017-11-18T01:21:43.302Z,85.40
2017-11-18T01:24:10.773Z,84.91
2017-11-18T01:26:38.299Z,85.34
2017-11-18T01:29:05.792Z,85.66
2017-11-18T01:31:33.313Z,85.65
2017-11-18T01:34:00.830Z,85.62
2017-11-18T01:36:28.360Z,85.51
2017-11-18T01:38:55.854Z,85.74
2017-11-18T01:41:23.436Z,85.86
2017-11-18T01:43:50.954Z,85.91
2017-11-18T01:46:18.567Z,86.28
2017-11-18T01:48:46.089Z,85.61
2017-11-18T01:51:13.590Z,85.85
2017-11-18T01:53:41.080Z,85.61
2017-11-18T01:56:08.629Z,85.45
2017-11-18T01:58:36.122Z,85.57
2017-11-18T02:01:03.617Z,85.87
2017-11-18T02:03:31.148Z,85.68
2017-11-18T02:05:58.638Z,86.05
2017-11-18T02:08:26.128Z,86.02
2017-11-18T02:10:54.240Z,86.01
2017-11-18T02:13:21.732Z,86.29
2017-11-18T02:15:49.273Z,86.11
2017-11-18T02:18:16.820Z,86.68
2017-11-18T02:20:44.317Z,86.18
2017-11-18T02:23:11.856Z,86.04
2017-11-18T02:25:39.369Z,86.17
2017-11-18T02:28:06.944Z,86.38
2017-11-18T02:30:34.470Z,86.79
2017-11-18T02:33:01.963Z,86.49
2017-11-18T02:35:29.457Z,85.93
2017-11-18T02:37:57.000Z,85.99
2017-11-18T02:40:24.500Z,86.24
2017-11-18T02:42:51.991Z,86.71
2017-11-18T02:45:19.522Z,85.77
2017-11-18T02:47:47.015Z,85.37
2017-11-18T02:50:14.509Z,85.42
2017-11-18T02:52:42.040Z,85.33
2017-11-18T02:55:09.533Z,85.25
2017-11-18T02:57:37.050Z,85.53
2017-11-18T03:00:04.604Z,85.29
2017-11-18T03:02:32.093Z,85.66
2017-11-18T03:04:59.589Z,85.67
2017-11-18T03:07:27.122Z,85.38
2017-11-18T03:09:54.629Z,85.34
2017-11-18T03:12:22.123Z,84.92
2017-11-18T03:14:49.668Z,85.01
2017-11-18T03:17:17.224Z,85.00
2017-11-18T03:19:44.717Z,84.66
2017-11-18T03:22:12.335Z,84.72
2017-11-18T03:24:39.890Z,84.19
2017-11-18T03:27:07.413Z,84.00
2017-11-18T03:29:34.901Z,83.26
2017-11-18T03:32:02.493Z,83.01
2017-11-18T03:34:30.017Z,82.61
2017-11-18T03:36:57.595Z,82.88
2017-11-18T03:39:25.089Z,82.60
2017-11-18T03:41:52.714Z,82.65
2017-11-18T03:44:20.205Z,82.28
2017-11-18T03:46:47.708Z,82.32
2017-11-18T03:49:15.281Z,82.52
2017-11-18T03:51:42.770Z,82.26
2017-11-18T03:54:10.259Z,81.77
2017-11-18T03:56:37.862Z,81.60
2017-11-18T03:59:05.362Z,81.94
2017-11-18T04:01:32.856Z,82.12
2017-11-18T04:04:00.376Z,81.48
2017-11-18T04:06:27.864Z,81.63
2017-11-18T04:08:55.453Z,81.46
2017-11-18T04:11:23.011Z,81.66
2017-11-18T04:13:50.506Z,81.70
2017-11-18T04:16:17.998Z,81.60
2017-11-18T04:18:45.516Z,81.48
2017-11-18T04:21:13.013Z,81.44
2017-11-18T04:23:40.535Z,81.16
2017-11-18T04:26:08.030Z,81.10
2017-11-18T04:28:35.563Z,81.39
2017-11-18T04:31:03.053Z,81.03
2017-11-18T04:33:30.650Z,81.15
2017-11-18T04:35:58.160Z,81.29
2017-11-18T04:38:25.693Z,81.13
2017-11-18T04:40:53.189Z,81.17
2017-11-18T04:43:20.685Z,81.05
2017-11-18T04:45:48.214Z,80.88
2017-11-18T04:48:15.786Z,81.03
2017-11-18T04:50:43.279Z,80.71
2017-11-18T04:53:10.797Z,80.70
2017-11-18T04:55:38.288Z,80.78
2017-11-18T04:58:05.775Z,80.90
2017-11-18T05:00:33.381Z,80.74
2017-11-18T05:03:00.908Z,80.70
2017-11-18T05:05:28.397Z,80.56
2017-11-18T05:07:55.889Z,80.63
2017-11-18T05:10:23.418Z,80.51
2017-11-18T05:12:50.921Z,80.57
2017-11-18T05:15:18.417Z,80.80
2017-11-18T05:17:45.990Z,80.38
2017-11-18T05:20:13.481Z,80.51
2017-11-18T05:22:40.972Z,80.09
2017-11-18T05:25:08.499Z,80.22
2017-11-18T05:27:36.029Z,80.25
2017-11-18T05:30:03.518Z,80.20
2017-11-18T05:32:31.093Z,79.85
2017-11-18T05:34:58.580Z,80.22
2017-11-18T05:37:26.137Z,79.89
2017-11-18T05:39:53.663Z,80.18
2017-11-18T05:42:21.145Z,80.10
2017-11-18T05:44:48.641Z,79.98
2017-11-18T05:47:16.285Z,80.15
2017-11-18T05:49:43.799Z,79.65
2017-11-18T05:52:11.289Z,79.63
2017-11-18T05:54:38.865Z,79.79
2017-11-18T05:57:06.357Z,79.86
2017-11-18T05:59:33.845Z,79.57
2017-11-18T06:02:01.371Z,80.12
2017-11-18T06:04:28.884Z,80.06
2017-11-18T06:06:56.373Z,79.76
2017-11-18T06:09:23.914Z,79.86
2017-11-18T06:11:51.397Z,80.05
2017-11-18T06:14:18.887Z,79.90
2017-11-18T06:16:46.482Z,80.04
2017-11-18T06:19:13.963Z,80.31
2017-11-18T06:21:41.459Z,80.29
2017-11-18T06:24:08.998Z,80.81
2017-11-18T06:26:36.497Z,81.02
2017-11-18T06:29:03.980Z,81.08
2017-11-18T06:31:31.513Z,81.09
2017-11-18T06:33:59.094Z,80.83
2017-11-18T06:36:26.656Z,80.85
2017-11-18T06:38:54.187Z,81.32
2017-11-18T06:41:21.682Z,81.05
2017-11-18T06:43:49.168Z,81.36
2017-11-18T06:46:16.710Z,81.20
2017-11-18T06:48:44.196Z,81.46
2017-11-18T06:51:11.681Z,81.52
2017-11-18T06:53:39.264Z,81.38
2017-11-18T06:56:06.776Z,81.53
2017-11-18T06:58:34.270Z,81.82
2017-11-18T07:01:01.802Z,81.74
2017-11-18T07:03:29.396Z,81.97
2017-11-18T07:05:56.888Z,81.95
2017-11-18T07:08:24.413Z,82.06
2017-11-18T07:10:51.919Z,82.10
2017-11-18T07:13:19.405Z,81.90
2017-11-18T07:15:46.989Z,82.25
2017-11-18T07:18:14.477Z,82.42
2017-11-18T07:20:41.964Z,82.04
2017-11-18T07:23:09.505Z,81.83
2017-11-18T07:25:36.991Z,81.84
2017-11-18T07:28:04.474Z,81.80
2017-11-18T07:30:32.012Z,80.94
2017-11-18T07:32:59.504Z,80.40
2017-11-18T07:35:26.988Z,79.91
2017-11-18T07:37:54.504Z,79.37
2017-11-18T07:40:21.994Z,78.74
2017-11-18T07:42:49.525Z,78.65
2017-11-18T07:45:17.012Z,78.02
2017-11-18T07:47:44.513Z,77.75
2017-11-18T07:50:12.034Z,77.51
2017-11-18T07:52:39.765Z,77.14
2017-11-18T07:55:07.260Z,76.81
2017-11-18T07:57:34.808Z,76.54
2017-11-18T08:00:02.320Z,76.82
2017-11-18T08:02:29.809Z,76.21
2017-11-18T08:04:57.341Z,75.99
2017-11-18T08:07:24.835Z,75.93
2017-11-18T08:09:52.326Z,75.94
2017-11-18T08:12:19.858Z,75.95
2017-11-18T08:14:47.361Z,75.90
2017-11-18T08:17:14.863Z,76.07
2017-11-18T08:19:42.408Z,76.08
2017-11-18T08:22:09.970Z,75.58
2017-11-18T08:24:37.567Z,75.60
2017-11-18T08:27:05.068Z,75.22
2017-11-18T08:29:32.669Z,75.44
2017-11-18T08:32:00.227Z,75.11
2017-11-18T08:34:27.751Z,74.71
2017-11-18T08:36:55.250Z,74.49
2017-11-18T08:39:22.741Z,74.29
2017-11-18T08:41:50.257Z,74.33
2017-11-18T08:44:17.759Z,74.14
2017-11-18T08:46:45.251Z,73.92
2017-11-18T08:49:12.786Z,74.01
2017-11-18T08:51:40.289Z,74.02
2017-11-18T08:54:07.768Z,73.52
2017-11-18T08:56:35.302Z,73.52
2017-11-18T08:59:02.793Z,73.65
2017-11-18T09:01:30.297Z,73.66
2017-11-18T09:03:57.821Z,73.54
2017-11-18T09:06:25.341Z,73.64
2017-11-18T09:08:52.840Z,73.48
2017-11-18T09:11:20.363Z,73.66
2017-11-18T09:13:47.860Z,73.35
2017-11-18T09:16:15.349Z,73.38
2017-11-18T09:18:42.885Z,73.70
2017-11-18T09:21:10.383Z,73.24
2017-11-18T09:23:37.924Z,73.18
2017-11-18T09:26:05.459Z,72.96
2017-11-18T09:28:32.948Z,72.61
2017-11-18T09:31:00.716Z,72.31
2017-11-18T09:33:28.236Z,71.92
2017-11-18T09:35:55.726Z,71.91
2017-11-18T09:38:23.282Z,72.39
2017-11-18T09:40:50.860Z,72.27
2017-11-18T09:43:18.362Z,71.67
2017-11-18T09:45:45.846Z,71.57
2017-11-18T09:48:13.389Z,71.58
2017-11-18T09:50:40.894Z,72.04
2017-11-18T09:53:08.390Z,71.48
2017-11-18T09:55:35.925Z,70.98
2017-11-18T09:58:03.413Z,70.81
2017-11-18T10:00:30.925Z,70.64
2017-11-18T10:02:58.465Z,69.94
2017-11-18T10:05:25.957Z,69.46
2017-11-18T10:07:53.479Z,69.58
2017-11-18T10:10:21.000Z,68.78
2017-11-18T10:12:48.485Z,68.49
2017-11-18T10:15:15.964Z,68.37
2017-11-18T10:17:43.537Z,67.71
2017-11-18T10:20:11.073Z,68.16
2017-11-18T10:22:38.733Z,67.51
2017-11-18T10:25:06.271Z,67.46
2017-11-18T10:27:33.844Z,67.51
2017-11-18T10:30:01.409Z,67.63
2017-11-18T10:32:28.953Z,67.33
2017-11-18T10:34:56.443Z,67.22
2017-11-18T10:37:23.939Z,67.50
2017-11-18T10:39:51.550Z,67.74
2017-11-18T10:42:19.037Z,67.95
2017-11-18T10:44:46.522Z,68.00
2017-11-18T10:47:14.056Z,68.24
2017-11-18T10:49:41.559Z,68.17
2017-11-18T10:52:09.046Z,68.14
2017-11-18T10:54:36.588Z,68.64
2017-11-18T10:57:04.081Z,68.70
2017-11-18T10:59:31.565Z,69.05
2017-11-18T11:01:59.089Z,69.03
2017-11-18T11:04:26.577Z,69.26
2017-11-18T11:06:54.073Z,69.28
2017-11-18T11:09:21.603Z,69.64
2017-11-18T11:11:49.097Z,69.08
2017-11-18T11:14:16.681Z,69.04
2017-11-18T11:16:44.205Z,69.76
2017-11-18T11:19:11.695Z,69.01
2017-11-18T11:21:39.188Z,69.22
2017-11-18T11:24:06.777Z,69.49
2017-11-18T11:26:34.264Z,69.15
2017-11-18T11:29:01.804Z,69.22
2017-11-18T11:31:29.333Z,68.81
2017-11-18T11:33:56.821Z,68.74
2017-11-18T11:36:24.309Z,68.69
2017-11-18T11:38:51.865Z,68.81
2017-11-18T11:41:19.382Z,68.55
2017-11-18T11:43:46.947Z,68.66
2017-11-18T11:46:14.516Z,68.19
2017-11-18T11:48:42.052Z,68.41
2017-11-18T11:51:09.544Z,68.21
2017-11-18T11:53:37.041Z,68.16
2017-11-18T11:56:04.578Z,67.77
2017-11-18T11:58:32.075Z,67.60
2017-11-18T12:00:59.569Z,66.92
2017-11-18T12:03:27.136Z,66.45
2017-11-18T12:05:54.629Z,66.14
2017-11-18T12:08:22.123Z,66.43
2017-11-18T12:10:49.714Z,67.12
2017-11-18T12:13:17.202Z,66.57
2017-11-18T12:15:44.699Z,65.60
2017-11-18T12:18:12.330Z,65.10
2017-11-18T12:20:39.810Z,65.96
2017-11-18T12:23:07.284Z,65.53
2017-11-18T12:25:34.878Z,65.24
2017-11-18T12:28:02.377Z,64.80
2017-11-18T12:30:29.968Z,64.92
2017-11-18T12:32:57.481Z,64.41
2017-11-18T12:35:24.968Z,64.28
2017-11-18T12:37:52.553Z,64.52
2017-11-18T12:40:20.049Z,64.67
2017-11-18T12:42:47.552Z,64.43
2017-11-18T12:45:15.071Z,64.56
2017-11-18T12:47:42.565Z,64.14
2017-11-18T12:50:10.151Z,63.75
2017-11-18T12:52:37.815Z,63.92
2017-11-18T12:55:05.301Z,64.75
2017-11-18T12:57:32.796Z,64.74
2017-11-18T13:00:00.406Z,65.20
2017-11-18T13:02:27.885Z,65.32
2017-11-18T13:04:55.374Z,65.49
2017-11-18T13:07:22.957Z,65.54
2017-11-18T13:09:50.466Z,65.65
2017-11-18T13:12:18.000Z,65.63
2017-11-18T13:14:45.560Z,65.90
2017-11-18T13:17:13.047Z,66.13
2017-11-18T13:19:40.529Z,65.98
2017-11-18T13:22:08.058Z,66.17
2017-11-18T13:24:35.555Z,65.99
2017-11-18T13:27:03.060Z,65.93
2017-11-18T13:29:30.584Z,65.77
2017-11-18T13:31:58.079Z,65.61
2017-11-18T13:34:25.576Z,65.53
2017-11-18T13:36:53.109Z,65.90
2017-11-18T13:39:20.593Z,65.99
2017-11-18T13:41:48.092Z,65.53
2017-11-18T13:44:15.614Z,65.42
2017-11-18T13:46:43.112Z,65.71
2017-11-18T13:49:10.667Z,65.76
2017-11-18T13:51:38.309Z,66.15
2017-11-18T13:54:05.873Z,65.85
2017-11-18T13:56:33.361Z,66.01
2017-11-18T13:59:00.891Z,65.81
2017-11-18T14:01:28.380Z,65.84
2017-11-18T14:03:55.873Z,65.83
2017-11-18T14:06:23.402Z,65.94
2017-11-18T14:08:50.895Z,65.94
2017-11-18T14:11:18.387Z,65.90
2017-11-18T14:13:45.930Z,66.03
2017-11-18T14:16:13.411Z,66.24
2017-11-18T14:18:40.909Z,66.06
2017-11-18T14:21:08.438Z,66.43
2017-11-18T14:23:35.962Z,66.36
2017-11-18T14:26:03.465Z,66.44
2017-11-18T14:28:30.986Z,66.31
2017-11-18T14:30:58.497Z,66.24
2017-11-18T14:33:25.997Z,66.97
2017-11-18T14:35:53.534Z,67.78
2017-11-18T14:38:21.023Z,68.27
2017-11-18T14:40:48.510Z,68.90
2017-11-18T14:43:16.037Z,69.41
2017-11-18T14:45:43.536Z,69.36
2017-11-18T14:48:11.028Z,69.28
2017-11-18T14:50:38.564Z,70.58
2017-11-18T14:53:06.083Z,70.38
2017-11-18T14:55:33.564Z,70.39
2017-11-18T14:58:01.086Z,70.80
2017-11-18T15:00:28.578Z,71.57
2017-11-18T15:02:56.072Z,71.80
2017-11-18T15:05:23.592Z,71.86
2017-11-18T15:07:51.086Z,72.25
2017-11-18T15:10:18.575Z,73.24
2017-11-18T15:12:46.088Z,74.02
2017-11-18T15:15:13.921Z,76.26
2017-11-18T15:17:47.001Z,76.59
2017-11-18T15:20:20.270Z,77.76
2017-11-18T15:22:53.518Z,78.65
2017-11-18T15:25:26.607Z,80.13
2017-11-18T15:31:11.023Z,81.68
2017-11-18T15:33:44.183Z,82.34
2017-11-18T15:36:17.380Z,81.96
2017-11-18T15:38:46.268Z,82.31
2017-11-18T15:41:13.758Z,82.24
2017-11-18T15:43:46.889Z,82.05
2017-11-18T15:46:14.383Z,82.56
2017-11-18T15:48:47.605Z,83.14
2017-11-18T15:54:37.179Z,82.33
2017-11-18T15:57:15.523Z,82.98
2017-11-18T15:59:43.016Z,83.32
2017-11-18T16:02:16.247Z,82.85
2017-11-18T16:04:43.773Z,82.78
2017-11-18T16:07:22.071Z,83.59
2017-11-18T16:09:49.604Z,85.10
2017-11-18T16:12:17.088Z,85.39
2017-11-18T16:14:44.578Z,85.22
2017-11-18T16:17:12.169Z,85.92
2017-11-18T16:19:39.667Z,86.35
2017-11-18T16:22:07.154Z,87.08
2017-11-18T16:24:34.695Z,88.47
2017-11-18T16:27:02.188Z,88.12
2017-11-18T16:29:29.679Z,88.03
2017-11-18T16:31:57.212Z,88.01
2017-11-18T16:34:24.696Z,88.22
2017-11-18T16:36:52.185Z,88.27
2017-11-18T16:39:19.722Z,88.76
2017-11-18T16:41:47.219Z,88.74
2017-11-18T16:44:14.707Z,88.33
2017-11-18T16:46:42.260Z,88.39
2017-11-18T16:49:09.766Z,89.07
2017-11-18T16:51:37.379Z,88.43
2017-11-18T16:54:04.870Z,88.88
2017-11-18T16:56:32.361Z,88.92
2017-11-18T16:58:59.906Z,89.04
2017-11-18T17:01:27.393Z,89.14
2017-11-18T17:03:54.973Z,89.04
2017-11-18T17:06:22.558Z,89.37
2017-11-18T17:08:50.097Z,89.67
2017-11-18T17:11:17.590Z,90.07
2017-11-18T17:13:45.231Z,89.40
2017-11-18T17:16:12.724Z,89.67
2017-11-18T17:18:40.265Z,89.48
2017-11-18T17:21:07.800Z,89.87
2017-11-18T17:23:35.294Z,89.87
2017-11-18T17:26:02.820Z,89.76
2017-11-18T17:28:30.372Z,89.20
2017-11-18T17:30:57.945Z,89.74
2017-11-18T17:33:25.466Z,89.79
2017-11-18T17:35:53.013Z,89.49
2017-11-18T17:38:20.511Z,89.28
2017-11-18T17:40:48.009Z,88.90
2017-11-18T17:43:15.544Z,89.22
2017-11-18T17:45:43.071Z,89.23
2017-11-18T17:48:10.581Z,89.22
2017-11-18T17:50:38.098Z,89.03
2017-11-18T17:53:05.595Z,89.11
2017-11-18T17:55:33.127Z,89.16
2017-11-18T17:58:00.626Z,89.32
2017-11-18T18:00:28.144Z,88.84
2017-11-18T18:02:55.672Z,88.04
2017-11-18T18:05:23.246Z,87.69
2017-11-18T18:07:50.809Z,87.41
2017-11-18T18:10:18.337Z,88.21
2017-11-18T18:12:45.939Z,87.67
2017-11-18T18:15:13.504Z,86.96
2017-11-18T18:17:41.052Z,87.33
2017-11-18T18:20:08.586Z,87.55
2017-11-18T18:22:36.077Z,87.53
2017-11-18T18:25:03.575Z,87.85
2017-11-18T18:27:31.123Z,87.89
2017-11-18T18:29:58.637Z,87.35
2017-11-18T18:32:26.130Z,86.85
2017-11-18T18:34:53.657Z,87.48
2017-11-18T18:37:21.149Z,87.19
2017-11-18T18:39:48.684Z,85.60
2017-11-18T18:42:16.342Z,86.18
2017-11-18T18:44:43.844Z,86.03
2017-11-18T18:47:11.370Z,86.34
2017-11-18T18:49:39.025Z,85.60
2017-11-18T18:52:06.522Z,85.75
2017-11-18T18:54:34.044Z,85.95
2017-11-18T18:57:01.584Z,85.80
2017-11-18T18:59:29.160Z,85.84
2017-11-18T19:01:56.664Z,85.61
2017-11-18T19:04:24.186Z,84.99
2017-11-18T19:06:51.683Z,85.82
2017-11-18T19:09:19.224Z,85.20
2017-11-18T19:11:46.836Z,85.29
2017-11-18T19:14:14.425Z,85.78
2017-11-18T19:16:41.915Z,85.50
2017-11-18T19:19:09.453Z,85.56
2017-11-18T19:21:36.943Z,85.69
2017-11-18T19:24:04.433Z,85.88
2017-11-18T19:26:32.008Z,86.25
2017-11-18T19:28:59.644Z,85.15
2017-11-18T19:31:27.200Z,85.28
2017-11-18T19:33:54.768Z,85.75
2017-11-18T19:36:22.302Z,85.85
2017-11-18T19:38:49.795Z,86.12
2017-11-18T19:41:17.313Z,86.41
2017-11-18T19:43:44.868Z,86.22
2017-11-18T19:46:12.363Z,86.33
2017-11-18T19:48:39.858Z,86.72
2017-11-18T19:51:07.482Z,86.27
2017-11-18T19:53:34.987Z,86.45
2017-11-18T19:56:02.477Z,85.85
2017-11-18T19:58:30.005Z,86.15
2017-11-18T20:00:57.509Z,85.94
2017-11-18T20:03:25.191Z,85.93
2017-11-18T20:05:52.822Z,86.13
2017-11-18T20:08:20.421Z,86.55
2017-11-18T20:10:48.125Z,85.93
2017-11-18T20:13:15.946Z,86.00
2017-11-18T20:15:43.810Z,86.03
2017-11-18T20:18:11.568Z,86.78
2017-11-18T20:20:39.232Z,85.76
2017-11-18T20:23:06.893Z,86.27
2017-11-18T20:25:34.459Z,86.70
2017-11-18T20:28:02.116Z,86.29
2017-11-18T20:30:29.717Z,86.66
2017-11-18T20:32:57.441Z,86.76
2017-11-18T20:35:25.197Z,86.70
2017-11-18T20:37:52.697Z,87.36
2017-11-18T20:40:20.194Z,87.50
2017-11-18T20:42:47.718Z,86.95
2017-11-18T20:45:15.212Z,86.91
2017-11-18T20:47:42.858Z,87.21
2017-11-18T20:50:10.502Z,86.88
2017-11-18T20:52:38.048Z,86.98
2017-11-18T20:55:05.891Z,87.46
2017-11-18T20:57:33.422Z,87.37
2017-11-18T21:00:00.931Z,86.88
2017-11-18T21:02:28.560Z,86.73
2017-11-18T21:04:56.133Z,87.26
2017-11-18T21:07:23.624Z,86.96
2017-11-18T21:09:51.211Z,85.76
2017-11-18T21:12:18.712Z,86.69
2017-11-18T21:14:46.357Z,86.02
2017-11-18T21:17:13.874Z,86.11
2017-11-18T21:19:41.534Z,86.03
2017-11-18T21:22:09.224Z,86.71
2017-11-18T21:24:36.876Z,85.62
2017-11-18T21:27:04.610Z,86.25
2017-11-18T21:29:32.162Z,85.77
2017-11-18T21:31:59.761Z,86.44
2017-11-18T21:34:27.252Z,85.67
2017-11-18T21:36:55.025Z,85.79
2017-11-18T21:39:22.664Z,85.84
2017-11-18T21:41:50.354Z,86.51
2017-11-18T21:44:17.887Z,85.83
2017-11-18T21:46:45.394Z,85.87
2017-11-18T21:49:12.912Z,85.70
2017-11-18T21:51:40.470Z,86.17
2017-11-18T21:54:08.023Z,85.95
2017-11-18T21:56:35.545Z,85.79
2017-11-18T21:59:03.142Z,85.64
2017-11-18T22:01:30.670Z,85.48
2017-11-18T22:03:58.191Z,86.09
2017-11-18T22:06:25.778Z,85.69
2017-11-18T22:08:53.279Z,86.09
2017-11-18T22:11:20.961Z,85.71
2017-11-18T22:13:48.908Z,85.34
2017-11-18T22:16:16.441Z,85.65
2017-11-18T22:18:44.015Z,85.26
2017-11-18T22:21:11.893Z,85.85
2017-11-18T22:23:39.451Z,86.35
2017-11-18T22:26:06.949Z,85.92
2017-11-18T22:28:34.554Z,85.62
2017-11-18T22:31:02.214Z,85.10
2017-11-18T22:33:29.708Z,85.30
2017-11-18T22:35:57.215Z,86.75
2017-11-18T22:38:24.745Z,85.27
2017-11-18T22:40:52.352Z,85.89
2017-11-18T22:43:19.854Z,85.54
2017-11-18T22:45:47.384Z,85.16
2017-11-18T22:48:14.885Z,85.63
2017-11-18T22:50:42.371Z,85.89
2017-11-18T22:53:09.896Z,85.32
2017-11-18T22:55:37.402Z,85.80
2017-11-18T22:58:04.958Z,84.63
2017-11-18T23:00:41.324Z,85.46
2017-11-18T23:03:08.853Z,84.66
2017-11-18T23:05:36.349Z,85.34
2017-11-18T23:08:03.862Z,85.33
2017-11-18T23:10:31.576Z,85.46
2017-11-18T23:12:59.075Z,84.54
2017-11-18T23:15:26.584Z,84.46
2017-11-18T23:17:54.123Z,84.35
2017-11-18T23:20:21.612Z,84.02
2017-11-18T23:22:49.101Z,84.57
2017-11-18T23:25:16.709Z,83.91
2017-11-18T23:27:44.198Z,84.12
2017-11-18T23:30:11.702Z,84.47
2017-11-18T23:32:39.230Z,84.71
2017-11-18T23:35:06.718Z,83.49
2017-11-18T23:37:34.311Z,84.13
2017-11-18T23:40:01.857Z,84.27
2017-11-18T23:42:29.349Z,84.10
2017-11-18T23:44:56.845Z,83.97
2017-11-18T23:47:24.442Z,84.54
2017-11-18T23:49:51.938Z,83.96
2017-11-18T23:52:19.472Z,84.24
2017-11-18T23:54:47.035Z,84.33
2017-11-18T23:57:14.522Z,83.08
2017-11-18T23:59:42.030Z,84.11
